Terminal Aerodrome Forecast
Issued by NWS

Current Version | Previous Version | Text Only | Print | Product List | Glossary Off
Versions: 1 2 3 4 5 6 7 8 9 10 11 12 13 14 15 16 17 18 19 20 21 22

000
FTUS41 KRLX 092355
TAFCKB
TAF
KCKB 092355Z 1000/1024 25006KT P6SM OVC060
     FM100200 25008KT 6SM -SHSN OVC035
      TEMPO 1003/1005 2SM -SHSN SCT007 BKN015 OVC025
     FM100500 25011G17KT 6SM -SHSN OVC015
     FM101300 26010G16KT P6SM OVC025
     FM102000 23011G17KT P6SM BKN080
     FM102300 22009KT P6SM BKN080=

USA.gov is the U.S. government's official web portal to all federal, state and local government web resources and services.